Time;durP1;ratioP1;P1;durP2;ratioP2;P2;SDS_P1;SDS_P2;PMS_P1;PMS_P2;Temp;Humidity;BMP_temperature;BMP_pressure;BME280_temperature;BME280_humidity;BME280_pressure;Samples;Min_cycle;Max_cycle;Signal;HPM_P1;HPM_P2
2022/09/12 00:01:05;;;;;;;6.80;4.12;;;;;;;15.69;82.47;99741.13;4455873;32;34527;-81
2022/09/12 00:03:35;;;;;;;6.25;3.90;;;;;;;16.01;80.52;99743.59;4456065;32;33372;-82
2022/09/12 00:06:08;;;;;;;6.90;3.55;;;;;;;16.35;78.30;99741.69;4452862;32;34488;-82
2022/09/12 00:08:36;;;;;;;5.97;3.97;;;;;;;16.04;78.69;99739.31;4453091;32;34023;-82
2022/09/12 00:11:08;;;;;;;5.85;3.45;;;;;;;15.81;80.58;99730.97;4454811;32;34208;-83
2022/09/12 00:13:36;;;;;;;5.43;3.47;;;;;;;15.64;79.98;99727.06;4447386;32;33753;-82
2022/09/12 00:16:20;;;;;;;6.28;3.30;;;;;;;15.64;81.36;99729.66;4455981;32;34708;-82
2022/09/12 00:18:48;;;;;;;4.97;3.20;;;;;;;16.52;77.22;99737.69;4454578;32;33981;-81
2022/09/12 00:21:16;;;;;;;5.85;3.50;;;;;;;16.11;78.45;99735.13;4443844;32;33282;-81
2022/09/12 00:23:44;;;;;;;6.07;3.53;;;;;;;16.19;77.47;99738.78;4454260;32;33682;-81
2022/09/12 00:26:13;;;;;;;5.32;3.62;;;;;;;16.35;77.54;99733.84;4455916;32;33779;-81
2022/09/12 00:28:40;;;;;;;7.40;3.62;;;;;;;16.81;75.26;99735.63;4464241;32;34569;-81
2022/09/12 00:31:14;;;;;;;5.78;3.53;;;;;;;16.96;73.99;99740.31;4461222;32;34761;-81
2022/09/12 00:33:42;;;;;;;6.07;3.10;;;;;;;16.82;74.76;99747.00;4452546;32;33558;-81
2022/09/12 00:36:15;;;;;;;5.57;3.42;;;;;;;16.90;74.10;99743.69;4452662;32;33742;-81
2022/09/12 00:38:44;;;;;;;5.68;2.95;;;;;;;16.50;75.92;99739.41;4459066;32;34576;-82
2022/09/12 00:41:36;;;;;;;5.82;3.90;;;;;;;16.75;74.86;99739.88;4463920;32;34415;-82
2022/09/12 00:44:22;;;;;;;5.82;3.17;;;;;;;17.16;73.06;99737.16;4445936;32;33410;-81
2022/09/12 00:47:00;;;;;;;6.57;3.42;;;;;;;16.81;75.12;99745.22;4447201;32;31821;-81
2022/09/12 00:49:48;;;;;;;5.82;3.47;;;;;;;16.52;75.69;99748.16;4464925;32;33615;-82
2022/09/12 00:52:21;;;;;;;8.77;3.40;;;;;;;15.80;79.22;99744.91;4455487;32;34754;-81
2022/09/12 00:54:54;;;;;;;5.78;3.42;;;;;;;15.39;80.87;99747.34;4446924;32;32597;-81
2022/09/12 00:57:27;;;;;;;7.00;3.92;;;;;;;14.85;84.25;99747.72;4456248;32;34578;-81
2022/09/12 01:00:16;;;;;;;7.30;4.15;;;;;;;15.79;81.03;99732.66;4449257;32;34412;-81
2022/09/12 01:02:47;;;;;;;5.95;3.97;;;;;;;16.11;79.50;99748.19;4456737;32;34005;-82
2022/09/12 01:05:14;;;;;;;7.35;4.15;;;;;;;16.21;78.92;99742.28;4453954;32;34100;-82
2022/09/12 01:07:43;;;;;;;6.72;4.28;;;;;;;16.43;77.28;99742.72;4450442;32;32422;-81
2022/09/12 01:10:10;;;;;;;7.12;4.18;;;;;;;16.13;78.51;99743.88;4458279;32;34316;-81
2022/09/12 01:12:40;;;;;;;10.23;4.72;;;;;;;16.21;78.28;99742.28;4449798;32;34675;-82
2022/09/12 01:15:08;;;;;;;9.32;4.93;;;;;;;15.97;80.33;99746.97;4447627;32;34280;-82
2022/09/12 01:18:26;;;;;;;7.12;4.40;;;;;;;15.90;80.66;99730.31;4451969;32;33834;-82
2022/09/12 01:20:58;;;;;;;8.35;4.97;;;;;;;16.40;78.16;99735.72;4414137;32;34961;-81
2022/09/12 01:24:13;;;;;;;7.72;4.93;;;;;;;16.18;79.48;99725.66;4455339;32;35283;-81
2022/09/12 01:26:56;;;;;;;7.57;4.78;;;;;;;15.99;80.34;99732.22;4419810;32;33563;-81
2022/09/12 01:29:39;;;;;;;8.80;5.05;;;;;;;15.67;82.35;99742.81;4451962;32;33756;-83
2022/09/12 01:32:22;;;;;;;9.18;4.90;;;;;;;15.67;82.19;99742.81;4453132;32;34089;-83
2022/09/12 01:35:08;;;;;;;7.90;5.10;;;;;;;15.69;82.67;99742.00;4453921;32;33828;-83
2022/09/12 01:37:50;;;;;;;9.48;5.18;;;;;;;15.52;83.21;99736.38;4455400;32;33221;-80
2022/09/12 01:40:22;;;;;;;10.55;5.40;;;;;;;15.54;83.65;99732.06;4453967;32;33871;-82
2022/09/12 01:43:14;;;;;;;10.20;6.07;;;;;;;15.42;84.46;99742.22;4429072;32;32029;-81
2022/09/12 01:45:45;;;;;;;8.95;6.00;;;;;;;15.46;84.29;99738.84;4449703;32;34697;-82
2022/09/12 01:48:19;;;;;;;9.65;6.10;;;;;;;15.48;83.37;99731.03;4453255;32;34226;-81
2022/09/12 01:51:01;;;;;;;8.23;6.07;;;;;;;15.53;83.65;99735.53;4441505;32;32827;-82
2022/09/12 01:53:34;;;;;;;8.50;6.10;;;;;;;15.58;83.53;99733.03;4452532;32;33616;-81
2022/09/12 01:56:07;;;;;;;9.88;5.87;;;;;;;15.12;85.61;99742.34;4453711;32;33956;-82
2022/09/12 01:58:49;;;;;;;8.23;6.00;;;;;;;15.28;84.62;99751.44;4440569;32;32377;-81
2022/09/12 02:01:20;;;;;;;9.15;6.20;;;;;;;15.44;83.21;99740.53;4460000;32;33985;-80
2022/09/12 02:03:53;;;;;;;12.75;7.05;;;;;;;15.37;83.87;99743.81;4460953;32;33975;-81
2022/09/12 02:06:31;;;;;;;12.60;7.12;;;;;;;15.14;85.36;99751.97;4452737;32;34355;-80
2022/09/12 02:09:07;;;;;;;8.95;6.28;;;;;;;15.34;84.66;99755.09;4448262;32;33953;-82
2022/09/12 02:11:38;;;;;;;11.35;7.78;;;;;;;15.10;84.96;99750.16;4455104;32;34459;-82
2022/09/12 02:14:10;;;;;;;9.48;7.07;;;;;;;14.30;89.92;99747.91;4457619;32;33639;-81
2022/09/12 02:16:50;;;;;;;10.05;7.45;;;;;;;14.65;89.24;99761.09;4454659;32;35329;-82
2022/09/12 02:19:28;;;;;;;11.32;7.70;;;;;;;14.93;87.48;99759.22;4455231;32;33622;-81
2022/09/12 02:22:01;;;;;;;10.77;7.25;;;;;;;15.23;85.48;99756.53;4450627;32;33746;-81
2022/09/12 02:24:32;;;;;;;11.48;7.70;;;;;;;15.53;83.51;99756.41;4453636;32;33608;-81
2022/09/12 02:27:23;;;;;;;10.38;7.55;;;;;;;15.03;86.31;99755.16;4453256;32;34099;-81
2022/09/12 02:29:52;;;;;;;8.82;6.22;;;;;;;15.43;84.24;99749.22;4451770;32;33704;-81
2022/09/12 02:32:33;;;;;;;9.35;6.85;;;;;;;15.80;82.49;99749.22;4458209;32;33432;-81
2022/09/12 02:35:30;;;;;;;9.07;6.82;;;;;;;15.73;82.50;99746.47;4453415;32;33878;-82
2022/09/12 02:38:10;;;;;;;10.63;6.65;;;;;;;15.51;84.04;99749.37;4448122;32;34152;-81
2022/09/12 02:40:38;;;;;;;11.15;6.78;;;;;;;16.21;79.88;99746.66;4453259;32;33677;-81
2022/09/12 02:43:06;;;;;;;10.52;6.22;;;;;;;16.36;78.77;99746.97;4453344;32;33775;-81
2022/09/12 02:45:34;;;;;;;9.82;6.87;;;;;;;15.68;81.35;99755.00;4453910;32;33940;-81
2022/09/12 02:48:02;;;;;;;9.77;5.93;;;;;;;16.40;78.80;99753.12;4456751;32;34159;-81
2022/09/12 02:50:30;;;;;;;10.38;6.78;;;;;;;15.67;80.97;99758.47;4456688;32;33495;-81
2022/09/12 02:53:03;;;;;;;9.10;6.37;;;;;;;15.78;81.56;99762.25;4453277;32;31889;-81
2022/09/12 02:55:32;;;;;;;10.88;6.95;;;;;;;15.80;81.27;99765.78;4454286;32;32278;-81
2022/09/12 02:58:05;;;;;;;11.40;6.57;;;;;;;16.00;80.15;99762.75;4456628;32;34261;-81
2022/09/12 03:00:57;;;;;;;8.90;6.22;;;;;;;16.12;79.61;99763.00;4453246;32;33798;-81
2022/09/12 03:03:53;;;;;;;8.73;5.72;;;;;;;16.25;78.27;99751.97;4452422;32;33897;-82
2022/09/12 03:06:35;;;;;;;11.43;6.53;;;;;;;16.19;78.30;99757.06;4457580;32;34604;-82
2022/09/12 03:09:12;;;;;;;8.23;5.40;;;;;;;15.77;80.19;99760.47;4451604;32;32809;-81
2022/09/12 03:11:52;;;;;;;12.02;6.57;;;;;;;15.38;81.16;99768.22;4453923;32;33490;-81
2022/09/12 03:14:41;;;;;;;8.90;6.30;;;;;;;14.93;83.05;99756.63;4454785;32;33526;-82
2022/09/12 03:17:34;;;;;;;11.57;6.30;;;;;;;15.21;82.35;99758.22;4451109;32;34309;-82
2022/09/12 03:20:23;;;;;;;10.02;6.22;;;;;;;16.37;76.70;99747.84;4453306;32;33923;-81
2022/09/12 03:23:03;;;;;;;10.15;6.20;;;;;;;16.23;77.02;99751.03;4450786;32;33387;-82
2022/09/12 03:25:34;;;;;;;12.55;6.20;;;;;;;15.14;82.53;99753.69;4454921;32;33458;-81
2022/09/12 03:28:06;;;;;;;10.70;6.37;;;;;;;15.87;78.30;99741.53;4456618;32;34354;-80
2022/09/12 03:30:42;;;;;;;11.12;7.20;;;;;;;15.66;79.49;99741.91;4451956;32;33889;-81
2022/09/12 03:33:12;;;;;;;13.57;7.37;;;;;;;14.60;84.81;99749.66;4458227;32;33677;-81
2022/09/12 03:35:40;;;;;;;12.57;7.18;;;;;;;14.20;88.95;99745.91;4461515;32;33709;-81
2022/09/12 03:38:07;;;;;;;13.27;7.03;;;;;;;15.37;82.34;99763.84;4453835;32;33081;-81
2022/09/12 03:40:37;;;;;;;13.43;7.62;;;;;;;15.45;80.83;99757.97;4461075;32;34082;-80
2022/09/12 03:43:05;;;;;;;12.70;7.70;;;;;;;15.11;82.07;99762.31;4453485;32;33723;-80
2022/09/12 03:45:32;;;;;;;12.30;7.53;;;;;;;15.21;81.37;99757.34;4453284;32;32268;-81
2022/09/12 03:48:01;;;;;;;16.35;7.68;;;;;;;15.06;81.95;99763.91;4464312;32;33452;-80
2022/09/12 03:50:28;;;;;;;12.52;7.22;;;;;;;15.08;81.75;99759.63;4455799;32;34177;-81
2022/09/12 03:52:58;;;;;;;11.07;7.35;;;;;;;15.11;81.43;99751.03;4453352;32;32051;-82
2022/09/12 03:55:26;;;;;;;11.63;7.22;;;;;;;14.95;82.24;99760.19;4454524;32;34570;-80
2022/09/12 03:57:54;;;;;;;10.75;7.07;;;;;;;15.01;81.80;99755.13;4462446;32;33684;-81
2022/09/12 04:00:21;;;;;;;12.80;7.68;;;;;;;15.08;81.37;99758.75;4452690;32;34836;-81
2022/09/12 04:02:53;;;;;;;13.07;7.43;;;;;;;14.89;81.97;99765.22;4451666;32;34464;-82
2022/09/12 04:05:22;;;;;;;12.25;7.25;;;;;;;14.98;81.41;99759.38;4460344;32;33493;-81
2022/09/12 04:07:50;;;;;;;11.90;7.55;;;;;;;14.80;82.27;99764.97;4459608;32;34670;-80
2022/09/12 04:10:17;;;;;;;11.05;7.53;;;;;;;14.93;81.65;99767.03;4452408;32;34124;-80
2022/09/12 04:12:45;;;;;;;15.55;8.38;;;;;;;14.90;81.64;99767.00;4452796;32;33700;-80
2022/09/12 04:15:13;;;;;;;12.25;7.78;;;;;;;14.79;82.78;99773.63;4452855;32;33388;-80
2022/09/12 04:17:40;;;;;;;13.70;7.68;;;;;;;14.77;82.79;99776.19;4465082;32;33859;-82
2022/09/12 04:20:08;;;;;;;13.05;7.97;;;;;;;14.89;82.55;99770.41;4454734;32;33906;-81
2022/09/12 04:22:36;;;;;;;12.73;7.57;;;;;;;14.89;83.19;99780.84;4452486;32;33759;-80
2022/09/12 04:25:03;;;;;;;14.25;8.38;;;;;;;15.10;81.98;99776.22;4453108;32;33968;-80
2022/09/12 04:27:31;;;;;;;15.77;8.23;;;;;;;15.43;79.77;99770.09;4457664;32;34052;-81
2022/09/12 04:30:00;;;;;;;14.85;8.50;;;;;;;15.59;78.69;99770.44;4455648;32;35135;-81
2022/09/12 04:32:29;;;;;;;13.68;7.75;;;;;;;15.36;79.62;99773.41;4459671;32;33363;-81
2022/09/12 04:34:57;;;;;;;12.45;7.57;;;;;;;14.61;83.38;99774.88;4455218;32;34502;-81
2022/09/12 04:37:25;;;;;;;13.40;7.57;;;;;;;15.29;80.63;99776.69;4452452;32;32322;-83
2022/09/12 04:39:56;;;;;;;13.35;8.00;;;;;;;15.50;78.75;99772.00;4455587;32;33892;-81
2022/09/12 04:42:25;;;;;;;11.88;8.25;;;;;;;15.27;79.41;99767.94;4453890;32;34473;-81
2022/09/12 04:44:52;;;;;;;14.63;8.20;;;;;;;14.84;80.56;99772.03;4460130;32;33755;-80
2022/09/12 04:47:19;;;;;;;12.63;8.15;;;;;;;14.60;83.82;99777.44;4455322;32;33931;-82
2022/09/12 04:49:47;;;;;;;13.10;8.85;;;;;;;15.13;80.06;99776.28;4457518;32;34167;-82
2022/09/12 04:52:15;;;;;;;13.90;8.20;;;;;;;14.91;81.11;99780.06;4456306;32;33644;-80
2022/09/12 04:54:42;;;;;;;13.38;8.52;;;;;;;14.97;80.92;99779.34;4454543;32;33876;-81
2022/09/12 04:57:10;;;;;;;13.95;8.75;;;;;;;14.83;80.94;99786.78;4454711;32;33831;-81
2022/09/12 04:59:38;;;;;;;13.40;7.40;;;;;;;14.83;81.42;99793.72;4457006;32;33995;-81
2022/09/12 05:02:05;;;;;;;14.50;8.55;;;;;;;15.41;79.05;99791.78;4453415;32;34385;-80
2022/09/12 05:04:33;;;;;;;13.52;8.70;;;;;;;15.44;78.57;99797.94;4454656;32;33899;-81
2022/09/12 05:07:01;;;;;;;13.25;8.45;;;;;;;15.70;77.36;99789.88;4452994;32;34728;-80
2022/09/12 05:09:29;;;;;;;12.32;8.50;;;;;;;14.43;82.73;99795.16;4456477;32;34152;-81
2022/09/12 05:11:56;;;;;;;13.55;8.55;;;;;;;14.33;84.17;99800.12;4455170;32;33719;-81
2022/09/12 05:14:33;;;;;;;14.27;9.23;;;;;;;14.79;82.34;99794.50;4441808;32;32095;-81
2022/09/12 05:17:01;;;;;;;13.30;8.35;;;;;;;15.23;79.69;99805.25;4455432;32;34601;-80
2022/09/12 05:19:29;;;;;;;13.70;8.75;;;;;;;15.64;78.36;99810.63;4453854;32;33985;-80
2022/09/12 05:21:57;;;;;;;14.27;8.57;;;;;;;15.98;76.42;99807.12;4456071;32;34393;-81
2022/09/12 05:24:25;;;;;;;12.55;8.32;;;;;;;14.99;80.90;99813.28;4445102;32;33863;-80
2022/09/12 05:26:53;;;;;;;13.10;8.52;;;;;;;15.84;77.30;99821.56;4454037;32;34025;-81
2022/09/12 05:29:20;;;;;;;15.75;9.18;;;;;;;15.85;77.55;99821.59;4454484;32;34114;-80
2022/09/12 05:31:50;;;;;;;14.82;9.70;;;;;;;16.02;75.86;99823.75;4457487;32;31958;-81
2022/09/12 05:34:19;;;;;;;16.42;9.25;;;;;;;16.04;76.34;99832.50;4458043;32;33839;-80
2022/09/12 05:36:47;;;;;;;17.10;8.77;;;;;;;16.06;76.10;99828.19;4451579;32;33809;-80
2022/09/12 05:39:15;;;;;;;19.67;8.25;;;;;;;16.41;74.78;99825.47;4458998;32;34928;-80
2022/09/12 05:41:43;;;;;;;14.13;8.85;;;;;;;16.12;76.25;99831.81;4458235;32;33673;-80
2022/09/12 05:44:11;;;;;;;13.57;8.15;;;;;;;16.15;76.00;99827.50;4453754;32;34271;-80
2022/09/12 05:46:41;;;;;;;14.00;8.75;;;;;;;16.47;74.77;99823.00;4437686;32;32538;-80
2022/09/12 05:49:10;;;;;;;12.88;7.60;;;;;;;16.69;74.10;99825.22;4439581;32;33517;-81
2022/09/12 05:51:41;;;;;;;15.25;8.85;;;;;;;16.35;75.61;99833.19;4451551;32;32907;-81
2022/09/12 05:54:10;;;;;;;15.00;8.68;;;;;;;17.05;72.49;99831.16;4453109;32;34560;-82
2022/09/12 05:56:58;;;;;;;15.90;8.52;;;;;;;16.33;75.21;99835.78;4454698;32;33699;-79
2022/09/12 05:59:27;;;;;;;15.45;8.75;;;;;;;16.36;75.03;99840.16;4460263;32;34062;-81
2022/09/12 06:01:54;;;;;;;13.93;8.15;;;;;;;17.03;72.54;99838.97;4451795;32;34348;-81
2022/09/12 06:04:22;;;;;;;15.63;8.30;;;;;;;17.14;72.43;99838.31;4450371;32;33797;-81
2022/09/12 06:06:50;;;;;;;13.52;8.32;;;;;;;17.19;71.66;99848.03;4450055;32;34434;-81
2022/09/12 06:09:18;;;;;;;14.35;8.90;;;;;;;16.83;72.75;99838.59;4454410;32;33992;-81
2022/09/12 06:11:46;;;;;;;13.68;8.93;;;;;;;16.63;73.76;99835.56;4451775;32;33614;-80
2022/09/12 06:14:15;;;;;;;13.80;8.30;;;;;;;15.86;77.54;99844.28;4442639;32;34249;-80
2022/09/12 06:16:42;;;;;;;12.98;8.30;;;;;;;16.39;75.15;99833.28;4452811;32;33746;-81
2022/09/12 06:19:17;;;;;;;13.27;8.13;;;;;;;16.35;75.47;99839.28;4438052;32;32374;-82
2022/09/12 06:21:46;;;;;;;;;;;;;;;16.00;76.87;99835.91;4453366;32;34066;-82
2022/09/12 06:24:15;;;;;;;13.13;7.97;;;;;;;16.08;76.33;99826.50;4453700;32;34731;-79
2022/09/12 06:26:42;;;;;;;12.95;8.23;;;;;;;16.03;77.16;99841.16;4452342;32;33642;-81
2022/09/12 06:29:10;;;;;;;14.63;9.35;;;;;;;16.16;76.34;99838.00;4455462;32;34933;-81
2022/09/12 06:31:40;;;;;;;15.93;9.18;;;;;;;16.50;75.49;99834.41;4452254;32;33788;-79
2022/09/12 06:34:11;;;;;;;13.90;8.55;;;;;;;16.68;74.98;99838.25;4454143;32;32955;-81
2022/09/12 06:36:41;;;;;;;14.02;8.15;;;;;;;16.52;75.19;99837.06;4452615;32;34487;-81
2022/09/12 06:39:11;;;;;;;13.45;8.48;;;;;;;16.33;76.26;99841.00;4454594;32;34596;-80
2022/09/12 06:41:39;;;;;;;13.05;7.85;;;;;;;16.16;77.21;99840.59;4455625;32;33695;-81
2022/09/12 06:44:15;;;;;;;13.23;7.95;;;;;;;16.55;76.00;99842.31;4445296;32;34540;-79
2022/09/12 06:46:44;;;;;;;14.63;8.23;;;;;;;16.99;74.39;99834.53;4455413;32;33874;-80
2022/09/12 06:49:12;;;;;;;12.70;7.80;;;;;;;17.09;73.50;99838.22;4453842;32;33842;-80
2022/09/12 06:51:42;;;;;;;12.52;7.43;;;;;;;17.06;73.67;99833.81;4452906;32;33133;-83
2022/09/12 06:54:14;;;;;;;11.00;7.05;;;;;;;16.54;75.18;99830.12;4443378;32;32691;-81
2022/09/12 06:56:42;;;;;;;11.70;6.75;;;;;;;16.91;73.41;99830.91;4456628;32;32707;-80
2022/09/12 06:59:09;;;;;;;12.32;7.32;;;;;;;16.88;73.47;99838.69;4454811;32;34068;-80
2022/09/12 07:01:37;;;;;;;12.00;6.75;;;;;;;17.24;72.88;99835.88;4454790;32;34354;-81
2022/09/12 07:04:04;;;;;;;13.25;7.35;;;;;;;17.19;73.12;99831.41;4450389;32;34503;-81
2022/09/12 07:06:40;;;;;;;12.35;6.68;;;;;;;17.37;71.84;99831.75;4451285;32;33713;-82
2022/09/12 07:09:10;;;;;;;10.35;6.00;;;;;;;17.27;71.42;99824.59;4453009;32;34736;-81
2022/09/12 07:11:41;;;;;;;10.77;6.22;;;;;;;16.87;72.24;99835.19;4435979;32;33502;-81
2022/09/12 07:14:11;;;;;;;16.42;7.22;;;;;;;17.19;72.44;99831.41;4453000;32;33834;-81
2022/09/12 07:16:39;;;;;;;9.88;5.97;;;;;;;17.25;72.32;99842.03;4438962;32;33193;-82
2022/09/12 07:19:07;;;;;;;14.85;7.15;;;;;;;17.19;71.46;99832.31;4446269;32;33832;-82
2022/09/12 07:21:38;;;;;;;11.00;6.45;;;;;;;17.01;71.89;99840.69;4452338;32;33372;-82
2022/09/12 07:24:08;;;;;;;12.05;6.62;;;;;;;16.76;73.49;99847.13;4453088;32;33200;-83
2022/09/12 07:26:37;;;;;;;12.05;6.50;;;;;;;17.32;71.60;99840.37;4456289;32;33630;-83
2022/09/12 07:29:04;;;;;;;11.77;6.40;;;;;;;17.25;70.65;99842.03;4451702;32;34183;-81
2022/09/12 07:31:52;;;;;;;8.77;5.35;;;;;;;17.28;70.79;99847.28;4454646;32;33447;-83
2022/09/12 07:34:19;;;;;;;7.65;4.72;;;;;;;17.74;69.34;99840.25;4456880;32;34826;-84
2022/09/12 07:36:47;;;;;;;11.07;5.20;;;;;;;17.47;68.56;99844.16;4454175;32;33674;-83
2022/09/12 07:39:15;;;;;;;8.82;4.55;;;;;;;17.72;67.95;99849.81;4453920;32;34803;-83
2022/09/12 07:41:42;;;;;;;7.75;4.78;;;;;;;17.99;67.04;99843.28;4454164;32;34283;-81
2022/09/12 07:44:09;;;;;;;8.18;4.75;;;;;;;17.86;66.62;99853.56;4454196;32;34693;-84
2022/09/12 07:46:38;;;;;;;9.45;4.45;;;;;;;17.79;67.01;99856.94;4453694;32;33412;-82
2022/09/12 07:49:06;;;;;;;6.75;4.47;;;;;;;17.95;66.50;99854.59;4454252;32;34709;-81
2022/09/12 07:51:34;;;;;;;7.32;4.90;;;;;;;18.00;67.03;99851.19;4459789;32;33994;-84
2022/09/12 07:54:06;;;;;;;7.90;4.68;;;;;;;17.52;68.04;99851.19;4455096;32;33328;-82
2022/09/12 07:56:34;;;;;;;10.82;5.57;;;;;;;17.79;68.56;99846.44;4454886;32;33783;-83
2022/09/12 07:59:07;;;;;;;10.45;6.55;;;;;;;18.43;65.55;99848.31;4452830;32;34810;-82
2022/09/12 08:01:35;;;;;;;6.82;4.37;;;;;;;17.59;69.64;99847.84;4449337;32;33552;-83
2022/09/12 08:04:03;;;;;;;7.25;4.45;;;;;;;17.55;67.00;99846.03;4457727;32;33912;-82
2022/09/12 08:06:34;;;;;;;7.85;4.40;;;;;;;17.71;67.87;99848.03;4453746;32;33938;-83
2022/09/12 08:09:03;;;;;;;6.40;3.65;;;;;;;17.82;67.23;99846.47;4451584;32;33613;-81
2022/09/12 08:11:31;;;;;;;6.90;3.45;;;;;;;18.67;62.70;99845.97;4454341;32;33629;-81
2022/09/12 08:14:00;;;;;;;6.10;3.47;;;;;;;19.51;60.02;99849.53;4452968;32;34285;-84
2022/09/12 08:16:30;;;;;;;5.85;3.62;;;;;;;20.51;56.62;99834.50;4452745;32;34224;-84
2022/09/12 08:18:59;;;;;;;5.82;3.83;;;;;;;21.09;55.87;99839.16;4452369;32;33896;-83
2022/09/12 08:21:30;;;;;;;6.05;3.45;;;;;;;21.55;53.71;99844.53;4450583;32;34380;-84
2022/09/12 08:24:00;;;;;;;5.90;3.08;;;;;;;21.84;52.05;99843.66;4451806;32;33922;-83
2022/09/12 08:26:28;;;;;;;6.28;3.67;;;;;;;22.07;51.08;99838.38;4455704;32;34651;-82
2022/09/12 08:28:55;;;;;;;6.75;3.75;;;;;;;22.09;51.12;99842.75;4451616;32;34613;-82
2022/09/12 08:31:24;;;;;;;8.35;3.87;;;;;;;21.86;52.51;99839.28;4446374;32;34560;-84
2022/09/12 08:33:54;;;;;;;6.15;3.70;;;;;;;20.62;55.40;99841.63;4450987;32;34237;-82
2022/09/12 08:36:24;;;;;;;7.05;4.25;;;;;;;22.03;52.43;99842.78;4451055;32;33549;-81
2022/09/12 08:39:01;;;;;;;6.15;3.50;;;;;;;20.92;55.11;99841.72;4445574;32;35893;-80
2022/09/12 08:41:30;;;;;;;7.22;3.55;;;;;;;21.79;52.22;99834.00;4448472;32;34107;-82
2022/09/12 08:44:30;;;;;;;5.60;3.60;;;;;;;21.56;53.27;99846.31;4453269;32;33809;-81
2022/09/12 08:47:07;;;;;;;7.05;3.55;;;;;;;21.36;54.07;99839.22;4452583;32;34382;-81
2022/09/12 08:49:43;;;;;;;6.62;3.17;;;;;;;21.26;54.42;99836.56;4450947;32;34176;-80
2022/09/12 08:52:16;;;;;;;7.03;3.17;;;;;;;20.52;55.11;99836.28;4451718;32;33666;-84
2022/09/12 08:54:46;;;;;;;6.68;2.60;;;;;;;19.63;56.88;99839.16;4446997;32;34216;-83
2022/09/12 08:57:14;;;;;;;10.80;2.80;;;;;;;20.86;51.72;99829.44;4452539;32;33131;-82
2022/09/12 08:59:43;;;;;;;4.47;2.40;;;;;;;20.76;53.33;99827.63;4441786;32;32365;-83
2022/09/12 09:02:23;;;;;;;5.60;2.92;;;;;;;20.80;53.82;99829.41;4440556;32;34099;-81
2022/09/12 09:04:56;;;;;;;5.55;2.90;;;;;;;20.41;55.30;99828.31;4451594;32;34742;-82
2022/09/12 09:07:36;;;;;;;5.18;2.58;;;;;;;20.75;52.29;99820.63;4451456;32;33569;-83
2022/09/12 09:10:21;;;;;;;4.62;2.42;;;;;;;20.28;53.56;99821.25;4451152;32;33976;-85
2022/09/12 09:13:07;;;;;;;5.00;2.08;;;;;;;20.54;53.44;99817.00;4437607;32;33156;-82
2022/09/12 09:16:10;;;;;;;4.57;2.70;;;;;;;20.86;50.66;99811.03;4428418;32;34614;-84
2022/09/12 09:18:38;;;;;;;4.70;2.67;;;;;;;21.29;52.05;99821.66;4370595;32;33532;-83
2022/09/12 09:21:19;;;;;;;5.35;2.42;;;;;;;20.53;52.22;99812.63;4407764;32;33862;-81
2022/09/12 09:23:52;;;;;;;4.28;2.20;;;;;;;21.13;51.02;99814.56;4432805;32;33162;-86
2022/09/12 09:26:55;;;;;;;5.03;2.20;;;;;;;20.95;51.18;99805.75;4424069;32;33766;-82
2022/09/12 09:29:27;;;;;;;6.05;2.17;;;;;;;21.24;49.93;99810.22;4414119;32;33873;-85
2022/09/12 09:31:56;;;;;;;5.05;2.55;;;;;;;21.49;48.71;99812.91;4424012;32;33967;-81
2022/09/12 09:34:29;;;;;;;5.55;2.92;;;;;;;21.50;49.76;99819.91;4425748;32;34226;-82
2022/09/12 09:37:00;;;;;;;4.85;2.22;;;;;;;21.12;51.31;99818.09;4405704;32;33793;-83
2022/09/12 09:39:47;;;;;;;5.22;2.80;;;;;;;21.08;52.90;99800.53;4421839;32;34602;-81
2022/09/12 09:42:22;;;;;;;5.28;2.90;;;;;;;21.32;51.93;99815.50;4417852;32;34919;-85
2022/09/12 09:44:51;;;;;;;5.32;3.03;;;;;;;20.97;53.16;99814.53;4423342;32;33799;-83
2022/09/12 09:47:19;;;;;;;4.95;2.80;;;;;;;20.04;54.12;99825.47;4416060;32;34531;-82
2022/09/12 09:49:46;;;;;;;3.58;2.20;;;;;;;20.60;53.72;99829.34;4445278;32;34033;-83
2022/09/12 09:52:16;;;;;;;6.03;2.90;;;;;;;20.81;52.71;99825.91;4426934;32;33900;-81
2022/09/12 09:54:48;;;;;;;4.78;2.30;;;;;;;20.98;52.20;99821.56;4416331;32;33469;-83
2022/09/12 09:57:34;;;;;;;6.78;2.03;;;;;;;20.22;54.13;99822.06;4424584;32;33595;-84
2022/09/12 10:00:21;;;;;;;5.18;2.83;;;;;;;20.75;51.28;99823.25;4437726;32;34455;-81
2022/09/12 10:03:08;;;;;;;3.97;2.62;;;;;;;21.02;52.12;99825.09;4411964;32;34847;-84
2022/09/12 10:05:51;;;;;;;7.53;2.70;;;;;;;21.35;52.12;99816.38;4437923;32;33647;-81
2022/09/12 10:08:20;;;;;;;6.87;2.80;;;;;;;21.63;51.03;99811.16;4426546;32;33618;-80
2022/09/12 10:11:18;;;;;;;6.10;2.37;;;;;;;21.79;50.59;99807.62;4438691;32;33685;-81
2022/09/12 10:13:59;;;;;;;5.43;2.22;;;;;;;22.29;50.45;99800.56;4433970;32;34412;-84
2022/09/12 10:16:32;;;;;;;6.55;2.45;;;;;;;22.04;48.45;99804.97;4434868;32;33189;-85
2022/09/12 10:19:01;;;;;;;4.82;2.40;;;;;;;21.52;49.05;99808.53;4419760;32;33768;-81
2022/09/12 10:21:38;;;;;;;4.70;2.80;;;;;;;20.96;51.63;99818.06;4421796;32;33500;-84
2022/09/12 10:24:32;;;;;;;5.10;2.62;;;;;;;21.07;52.07;99817.19;4404726;32;33901;-82
2022/09/12 10:27:22;;;;;;;4.32;2.53;;;;;;;21.36;51.22;99812.88;4418476;32;34231;-80
2022/09/12 10:29:54;;;;;;;5.72;2.70;;;;;;;21.55;50.93;99812.91;4412566;32;33799;-82
2022/09/12 10:32:35;;;;;;;7.70;2.92;;;;;;;21.53;50.81;99804.13;4402633;32;32443;-83
2022/09/12 10:35:08;;;;;;;7.85;2.62;;;;;;;21.71;50.61;99809.41;4409702;32;34926;-85
2022/09/12 10:37:38;;;;;;;6.00;3.42;;;;;;;21.37;51.87;99804.09;4417313;32;36284;-85
2022/09/12 10:40:20;;;;;;;6.28;2.60;;;;;;;20.59;54.29;99810.03;4404894;32;33675;-86
2022/09/12 10:42:49;;;;;;;6.37;2.62;;;;;;;21.29;52.81;99815.50;4414949;32;33769;-82
2022/09/12 10:45:29;;;;;;;6.57;3.20;;;;;;;20.31;55.80;99813.38;4427458;32;34509;-83
2022/09/12 10:47:59;;;;;;;5.72;3.28;;;;;;;19.53;57.89;99830.31;4398074;32;33519;-82
2022/09/12 10:50:41;;;;;;;5.20;3.20;;;;;;;19.34;58.60;99824.00;4403640;32;34833;-83
2022/09/12 10:53:31;;;;;;;6.55;3.20;;;;;;;19.32;59.15;99819.63;4421361;32;35348;-81
2022/09/12 10:56:06;;;;;;;6.12;3.45;;;;;;;19.76;58.25;99814.78;4411953;32;35156;-84
2022/09/12 10:58:38;;;;;;;6.20;3.20;;;;;;;19.67;58.20;99819.94;4414430;32;33615;-82
2022/09/12 11:01:15;;;;;;;8.48;3.10;;;;;;;20.55;56.41;99810.87;4434996;32;34008;-83
2022/09/12 11:04:09;;;;;;;6.05;3.50;;;;;;;20.28;57.21;99805.47;4423780;32;33829;-84
2022/09/12 11:07:00;;;;;;;5.80;3.10;;;;;;;19.78;57.63;99802.53;4413898;32;33650;-82
2022/09/12 11:09:38;;;;;;;5.25;3.08;;;;;;;19.57;58.71;99810.22;4436134;32;33776;-84
2022/09/12 11:12:09;;;;;;;5.97;3.08;;;;;;;19.32;59.43;99815.25;4434151;32;33346;-83
2022/09/12 11:14:59;;;;;;;10.85;3.95;;;;;;;19.57;59.67;99818.09;4430992;32;34627;-84
2022/09/12 11:17:50;;;;;;;6.57;3.30;;;;;;;19.47;59.47;99813.59;4425234;32;33645;-86
2022/09/12 11:20:40;;;;;;;5.80;3.33;;;;;;;19.31;59.76;99813.47;4385723;32;31794;-85
2022/09/12 11:23:46;;;;;;;8.82;3.30;;;;;;;18.97;60.84;99814.91;4411022;32;33842;-83
2022/09/12 11:26:17;;;;;;;7.50;2.90;;;;;;;19.05;61.91;99821.97;4431254;32;34039;-85
2022/09/12 11:29:18;;;;;;;4.85;3.03;;;;;;;19.16;61.15;99818.56;4413118;32;33608;-84
2022/09/12 11:31:55;;;;;;;5.05;3.05;;;;;;;19.16;60.31;99808.06;4418891;32;34058;-85
2022/09/12 11:34:43;;;;;;;7.12;3.10;;;;;;;20.14;57.13;99808.88;4426263;32;33776;-85
2022/09/12 11:37:24;;;;;;;5.80;3.28;;;;;;;19.45;58.56;99810.97;4405368;32;32381;-87
2022/09/12 11:39:52;;;;;;;5.82;3.47;;;;;;;19.27;58.46;99814.31;4434101;32;34009;-83
2022/09/12 11:42:28;;;;;;;5.53;3.47;;;;;;;19.13;59.26;99814.16;4414129;32;32834;-81
2022/09/12 11:45:04;;;;;;;7.03;3.57;;;;;;;19.19;59.88;99808.09;4401557;32;34711;-81
2022/09/12 11:47:34;;;;;;;6.35;3.35;;;;;;;19.21;59.98;99811.63;4400495;32;34530;-85
2022/09/12 11:50:04;;;;;;;6.60;3.70;;;;;;;19.61;60.02;99806.75;4426695;32;34003;-86
2022/09/12 11:52:36;;;;;;;6.00;3.55;;;;;;;19.87;59.29;99798.19;4409476;32;34018;-84
2022/09/12 11:55:18;;;;;;;5.93;3.67;;;;;;;19.28;60.91;99802.03;4418208;32;33732;-83
2022/09/12 11:57:53;;;;;;;7.47;3.97;;;;;;;19.22;61.59;99802.91;4416774;32;34723;-88
2022/09/12 12:00:31;;;;;;;6.60;3.65;;;;;;;19.52;60.17;99814.53;4413881;32;34547;-87